Time,TemperatureF,DewpointF,PressureIn,WindDirection,WindDirectionDegrees,WindSpeedMPH,WindSpeedGustMPH,Humidity,HourlyPrecipIn,Conditions,Clouds,dailyrainin,SoftwareType,DateUTC
2013-01-25 00:01:00,48.0,45.0,30.16,SSW,212,3.0,13.0,90,0.01,,,0.09,,2013-01-25 08:01:00,
2013-01-25 00:11:00,49.0,46.0,30.16,SSW,202,4.0,10.0,90,0.01,,,0.09,,2013-01-25 08:11:00,
2013-01-25 00:21:00,49.0,46.0,30.16,SSW,202,4.0,10.0,90,0.01,,,0.09,,2013-01-25 08:21:00,
2013-01-25 00:32:00,49.0,46.0,30.16,South,175,3.0,15.0,90,0.01,,,0.09,,2013-01-25 08:32:00,
2013-01-25 00:41:00,49.0,46.0,30.16,South,175,3.0,15.0,90,0.01,,,0.09,,2013-01-25 08:41:00,
2013-01-25 00:52:00,49.0,46.0,30.15,South,178,5.0,10.0,91,0.00,,,0.09,,2013-01-25 08:52:00,
2013-01-25 01:01:00,49.0,46.0,30.15,SSW,192,3.0,13.0,90,0.00,,,0.09,,2013-01-25 09:01:00,
2013-01-25 01:11:00,49.0,46.0,30.15,SSW,192,3.0,13.0,90,0.00,,,0.09,,2013-01-25 09:11:00,
2013-01-25 01:21:00,49.0,46.0,30.16,South,187,6.0,12.0,90,0.00,,,0.09,,2013-01-25 09:21:00,
2013-01-25 01:31:00,49.0,46.0,30.16,South,173,6.0,13.0,90,0.00,,,0.09,,2013-01-25 09:31:00,
2013-01-25 01:41:00,49.0,46.0,30.16,South,173,6.0,13.0,90,0.00,,,0.09,,2013-01-25 09:41:00,
2013-01-25 01:51:00,49.0,46.0,30.15,South,180,6.0,12.0,90,0.00,,,0.09,,2013-01-25 09:51:00,
2013-01-25 02:01:00,48.0,45.0,30.15,SSW,204,4.0,14.0,90,0.00,,,0.09,,2013-01-25 10:01:00,
2013-01-25 02:11:00,48.0,45.0,30.15,SSW,204,4.0,14.0,90,0.00,,,0.09,,2013-01-25 10:11:00,
2013-01-25 02:21:00,48.0,45.0,30.15,ENE,76,5.0,15.0,90,0.00,,,0.09,,2013-01-25 10:21:00,
2013-01-25 02:31:00,48.0,45.0,30.14,SE,127,2.0,16.0,90,0.01,,,0.10,,2013-01-25 10:31:00,
2013-01-25 02:41:00,48.0,45.0,30.14,SE,127,2.0,16.0,90,0.01,,,0.10,,2013-01-25 10:41:00,
2013-01-25 02:52:00,48.0,45.0,30.15,SSW,197,6.0,17.0,91,0.02,,,0.11,,2013-01-25 10:52:00,
2013-01-25 03:01:00,48.0,45.0,30.14,West,271,5.0,12.0,91,0.04,,,0.13,,2013-01-25 11:01:00,
2013-01-25 03:11:00,48.0,45.0,30.14,West,271,5.0,12.0,91,0.04,,,0.13,,2013-01-25 11:11:00,
2013-01-25 03:22:00,48.0,45.0,30.14,South,186,2.0,8.0,91,0.04,,,0.14,,2013-01-25 11:22:00,
2013-01-25 03:32:00,48.0,45.0,30.13,South,186,3.0,12.0,91,0.05,,,0.14,,2013-01-25 11:32:00,
2013-01-25 03:41:00,48.0,45.0,30.13,South,186,3.0,12.0,91,0.05,,,0.14,,2013-01-25 11:41:00,
2013-01-25 03:52:00,48.0,46.0,30.13,South,186,3.0,7.0,92,0.05,,,0.15,,2013-01-25 11:52:00,
2013-01-25 04:02:00,49.0,47.0,30.13,SSW,212,4.0,16.0,92,0.04,,,0.16,,2013-01-25 12:02:00,
2013-01-25 04:11:00,49.0,47.0,30.13,SSW,212,4.0,16.0,92,0.04,,,0.16,,2013-01-25 12:11:00,
2013-01-25 04:21:00,49.0,47.0,30.12,South,173,5.0,15.0,92,0.04,,,0.17,,2013-01-25 12:21:00,
2013-01-25 04:32:00,49.0,47.0,30.12,SSE,147,5.0,13.0,92,0.04,,,0.18,,2013-01-25 12:32:00,
2013-01-25 04:41:00,49.0,47.0,30.12,SSE,147,5.0,13.0,92,0.04,,,0.18,,2013-01-25 12:41:00,
2013-01-25 04:53:00,49.0,47.0,30.12,SSW,198,6.0,14.0,92,0.03,,,0.18,,2013-01-25 12:53:00,
2013-01-25 05:01:00,50.0,48.0,30.12,East,86,7.0,17.0,92,0.02,,,0.18,,2013-01-25 13:01:00,
2013-01-25 05:11:00,50.0,48.0,30.12,East,86,7.0,17.0,92,0.02,,,0.18,,2013-01-25 13:11:00,
2013-01-25 05:22:00,50.0,48.0,30.12,East,86,7.0,17.0,92,0.02,,,0.18,,2013-01-25 13:22:00,
2013-01-25 05:32:00,50.0,48.0,30.12,East,91,5.0,12.0,92,0.01,,,0.19,,2013-01-25 13:32:00,
2013-01-25 05:42:00,50.0,48.0,30.12,East,91,5.0,12.0,92,0.01,,,0.19,,2013-01-25 13:42:00,
2013-01-25 05:52:00,50.0,48.0,30.11,ESE,117,4.0,9.0,92,0.02,,,0.20,,2013-01-25 13:52:00,
2013-01-25 06:02:00,50.0,48.0,30.11,East,81,6.0,14.0,92,0.02,,,0.20,,2013-01-25 14:02:00,
2013-01-25 06:11:00,50.0,48.0,30.11,East,81,6.0,14.0,92,0.02,,,0.20,,2013-01-25 14:11:00,
2013-01-25 06:22:00,50.0,48.0,30.11,East,96,2.0,11.0,92,0.01,,,0.20,,2013-01-25 14:22:00,
2013-01-25 06:32:00,50.0,48.0,30.11,ESE,123,5.0,13.0,93,0.01,,,0.20,,2013-01-25 14:32:00,
2013-01-25 06:41:00,50.0,48.0,30.11,ESE,123,5.0,13.0,93,0.01,,,0.20,,2013-01-25 14:41:00,
2013-01-25 06:53:00,50.0,48.0,30.11,East,80,2.0,12.0,93,0.01,,,0.21,,2013-01-25 14:53:00,
2013-01-25 07:01:00,50.0,48.0,30.10,SW,219,5.0,14.0,93,0.02,,,0.22,,2013-01-25 15:01:00,
2013-01-25 07:11:00,50.0,48.0,30.10,SW,219,5.0,14.0,93,0.02,,,0.22,,2013-01-25 15:11:00,
2013-01-25 07:21:00,50.0,48.0,30.10,SSE,164,6.0,17.0,93,0.02,,,0.22,,2013-01-25 15:21:00,
2013-01-25 07:31:00,50.0,48.0,30.10,East,89,5.0,14.0,93,0.03,,,0.23,,2013-01-25 15:31:00,
2013-01-25 07:42:00,50.0,48.0,30.10,East,89,5.0,14.0,93,0.03,,,0.23,,2013-01-25 15:42:00,
2013-01-25 07:53:00,50.0,48.0,30.10,ESE,107,4.0,12.0,93,0.03,,,0.24,,2013-01-25 15:53:00,
2013-01-25 08:02:00,50.0,48.0,30.10,East,95,3.0,10.0,93,0.03,,,0.25,,2013-01-25 16:02:00,
2013-01-25 08:11:00,50.0,48.0,30.10,East,95,3.0,10.0,93,0.03,,,0.25,,2013-01-25 16:11:00,
2013-01-25 08:22:00,50.0,48.0,30.10,ENE,74,2.0,15.0,93,0.05,,,0.27,,2013-01-25 16:22:00,
2013-01-25 08:32:00,50.0,48.0,30.10,WSW,246,2.0,10.0,93,0.06,,,0.28,,2013-01-25 16:32:00,
2013-01-25 08:42:00,50.0,48.0,30.10,WSW,246,2.0,10.0,93,0.06,,,0.28,,2013-01-25 16:42:00,
2013-01-25 08:52:00,50.0,48.0,30.11,SSE,153,5.0,12.0,93,0.08,,,0.32,,2013-01-25 16:52:00,
2013-01-25 09:01:00,50.0,48.0,30.11,SSE,153,5.0,12.0,93,0.08,,,0.32,,2013-01-25 17:01:00,
2013-01-25 09:11:00,50.0,48.0,30.11,SSE,153,5.0,12.0,93,0.08,,,0.32,,2013-01-25 17:11:00,
2013-01-25 09:22:00,50.0,48.0,30.10,SSE,147,8.0,17.0,94,0.10,,,0.37,,2013-01-25 17:22:00,
2013-01-25 09:32:00,50.0,48.0,30.10,NW,308,2.0,8.0,94,0.10,,,0.39,,2013-01-25 17:32:00,
2013-01-25 09:43:00,50.0,48.0,30.10,NW,308,2.0,8.0,94,0.10,,,0.39,,2013-01-25 17:43:00,
2013-01-25 09:53:00,50.0,48.0,30.11,South,190,7.0,16.0,94,0.08,,,0.40,,2013-01-25 17:53:00,
2013-01-25 10:01:00,50.0,48.0,30.11,WSW,255,4.0,9.0,94,0.08,,,0.42,,2013-01-25 18:01:00,
2013-01-25 10:11:00,50.0,48.0,30.11,WSW,255,4.0,9.0,94,0.08,,,0.42,,2013-01-25 18:11:00,
2013-01-25 10:23:00,50.0,48.0,30.12,West,280,5.0,13.0,94,0.06,,,0.43,,2013-01-25 18:23:00,
2013-01-25 10:32:00,50.0,48.0,30.11,West,265,3.0,14.0,94,0.05,,,0.44,,2013-01-25 18:32:00,
2013-01-25 10:42:00,50.0,48.0,30.11,West,265,3.0,14.0,94,0.05,,,0.44,,2013-01-25 18:42:00,
2013-01-25 10:52:00,49.0,48.0,30.11,West,271,5.0,11.0,95,0.05,,,0.45,,2013-01-25 18:52:00,
2013-01-25 11:02:00,50.0,49.0,30.11,WSW,256,5.0,11.0,95,0.05,,,0.47,,2013-01-25 19:02:00,
2013-01-25 11:12:00,50.0,49.0,30.11,WSW,256,5.0,11.0,95,0.05,,,0.47,,2013-01-25 19:12:00,
2013-01-25 11:21:00,50.0,49.0,30.11,WSW,250,4.0,11.0,95,0.04,,,0.47,,2013-01-25 19:21:00,
2013-01-25 11:32:00,50.0,49.0,30.11,SE,134,5.0,14.0,95,0.03,,,0.48,,2013-01-25 19:32:00,
2013-01-25 11:41:00,50.0,49.0,30.11,SE,134,5.0,14.0,95,0.03,,,0.48,,2013-01-25 19:41:00,
2013-01-25 11:53:00,50.0,49.0,30.11,WSW,245,3.0,11.0,95,0.02,,,0.48,,2013-01-25 19:53:00,
2013-01-25 12:01:00,50.0,49.0,30.10,South,171,2.0,11.0,95,0.01,,,0.48,,2013-01-25 20:01:00,
2013-01-25 12:11:00,50.0,49.0,30.10,South,171,2.0,11.0,95,0.01,,,0.48,,2013-01-25 20:11:00,
2013-01-25 12:21:00,50.0,49.0,30.09,WNW,286,2.0,8.0,95,0.01,,,0.48,,2013-01-25 20:21:00,
2013-01-25 12:31:00,50.0,49.0,30.09,SW,223,3.0,8.0,96,0.00,,,0.48,,2013-01-25 20:31:00,
2013-01-25 12:42:00,50.0,49.0,30.09,SW,223,3.0,8.0,96,0.00,,,0.48,,2013-01-25 20:42:00,
2013-01-25 12:52:00,50.0,49.0,30.08,SE,134,3.0,11.0,96,0.00,,,0.48,,2013-01-25 20:52:00,
2013-01-25 13:01:00,50.0,49.0,30.07,South,183,3.0,9.0,96,0.00,,,0.48,,2013-01-25 21:01:00,
2013-01-25 13:11:00,50.0,49.0,30.07,South,183,3.0,9.0,96,0.00,,,0.48,,2013-01-25 21:11:00,
2013-01-25 13:22:00,50.0,49.0,30.07,SW,220,1.0,8.0,96,0.00,,,0.48,,2013-01-25 21:22:00,
2013-01-25 13:32:00,50.0,49.0,30.06,West,267,3.0,5.0,96,0.00,,,0.48,,2013-01-25 21:32:00,
2013-01-25 13:42:00,50.0,49.0,30.06,West,267,3.0,5.0,96,0.00,,,0.48,,2013-01-25 21:42:00,
2013-01-25 13:52:00,50.0,49.0,30.06,West,259,3.0,6.0,96,0.00,,,0.48,,2013-01-25 21:52:00,
2013-01-25 14:01:00,49.0,48.0,30.06,West,266,2.0,4.0,96,0.00,,,0.48,,2013-01-25 22:01:00,
2013-01-25 14:11:00,49.0,48.0,30.06,West,266,2.0,4.0,96,0.00,,,0.48,,2013-01-25 22:11:00,
2013-01-25 14:21:00,49.0,48.0,30.05,West,275,3.0,6.0,96,0.00,,,0.48,,2013-01-25 22:21:00,
2013-01-25 14:32:00,49.0,48.0,30.05,West,261,1.0,6.0,96,0.00,,,0.48,,2013-01-25 22:32:00,
2013-01-25 14:41:00,49.0,48.0,30.05,West,261,1.0,6.0,96,0.00,,,0.48,,2013-01-25 22:41:00,
2013-01-25 14:52:00,49.0,48.0,30.05,West,271,2.0,5.0,97,0.01,,,0.49,,2013-01-25 22:52:00,
2013-01-25 15:01:00,49.0,48.0,30.05,West,265,3.0,5.0,96,0.02,,,0.50,,2013-01-25 23:01:00,
2013-01-25 15:11:00,49.0,48.0,30.05,West,265,3.0,5.0,96,0.02,,,0.50,,2013-01-25 23:11:00,
2013-01-25 15:21:00,49.0,48.0,30.05,West,263,2.0,5.0,96,0.02,,,0.50,,2013-01-25 23:21:00,
2013-01-25 15:31:00,49.0,48.0,30.05,WSW,252,2.0,6.0,97,0.02,,,0.50,,2013-01-25 23:31:00,
2013-01-25 15:42:00,49.0,48.0,30.05,WSW,252,2.0,6.0,97,0.02,,,0.50,,2013-01-25 23:42:00,
2013-01-25 15:52:00,49.0,48.0,30.05,West,262,4.0,7.0,97,0.01,,,0.50,,2013-01-25 23:52:00,
2013-01-25 16:01:00,48.0,47.0,30.05,West,268,3.0,6.0,97,0.00,,,0.50,,2013-01-26 00:01:00,
2013-01-25 16:11:00,48.0,47.0,30.05,West,268,3.0,6.0,97,0.00,,,0.50,,2013-01-26 00:11:00,
2013-01-25 16:22:00,48.0,47.0,30.05,West,268,3.0,6.0,97,0.00,,,0.50,,2013-01-26 00:22:00,
2013-01-25 16:31:00,47.0,46.0,30.06,West,277,5.0,9.0,96,0.00,,,0.50,,2013-01-26 00:31:00,
2013-01-25 16:41:00,47.0,46.0,30.06,West,277,5.0,9.0,96,0.00,,,0.50,,2013-01-26 00:41:00,
2013-01-25 16:53:00,47.0,46.0,30.05,West,266,5.0,8.0,97,0.00,,,0.50,,2013-01-26 00:53:00,
2013-01-25 17:01:00,47.0,46.0,30.05,West,269,3.0,7.0,97,0.00,,,0.50,,2013-01-26 01:01:00,
2013-01-25 17:11:00,47.0,46.0,30.05,West,269,3.0,7.0,97,0.00,,,0.50,,2013-01-26 01:11:00,
2013-01-25 17:22:00,46.0,45.0,30.04,West,274,3.0,7.0,97,0.00,,,0.50,,2013-01-26 01:22:00,
2013-01-25 17:31:00,46.0,45.0,30.04,West,270,2.0,4.0,97,0.00,,,0.50,,2013-01-26 01:31:00,
2013-01-25 17:41:00,46.0,45.0,30.04,West,270,2.0,4.0,97,0.00,,,0.50,,2013-01-26 01:41:00,
2013-01-25 17:52:00,46.0,45.0,30.04,West,269,3.0,5.0,97,0.00,,,0.50,,2013-01-26 01:52:00,
2013-01-25 18:01:00,46.0,45.0,30.04,West,261,3.0,6.0,96,0.00,,,0.50,,2013-01-26 02:01:00,
2013-01-25 18:11:00,46.0,45.0,30.04,West,261,3.0,6.0,96,0.00,,,0.50,,2013-01-26 02:11:00,
2013-01-25 18:22:00,45.0,44.0,30.04,West,276,2.0,4.0,97,0.00,,,0.50,,2013-01-26 02:22:00,
2013-01-25 18:32:00,45.0,44.0,30.04,West,270,3.0,5.0,97,0.00,,,0.49,,2013-01-26 02:32:00,
2013-01-25 18:42:00,45.0,44.0,30.04,West,270,3.0,5.0,97,0.00,,,0.49,,2013-01-26 02:42:00,
2013-01-25 18:52:00,45.0,44.0,30.04,North,5,0.0,3.0,97,0.00,,,0.49,,2013-01-26 02:52:00,
2013-01-25 19:01:00,45.0,44.0,30.03,NE,49,0.0,2.0,96,0.00,,,0.49,,2013-01-26 03:01:00,
2013-01-25 19:11:00,45.0,44.0,30.03,NE,49,0.0,2.0,96,0.00,,,0.49,,2013-01-26 03:11:00,
2013-01-25 19:21:00,45.0,44.0,30.03,East,95,0.0,4.0,96,0.00,,,0.49,,2013-01-26 03:21:00,
2013-01-25 19:31:00,44.0,43.0,30.03,ESE,121,1.0,4.0,96,0.00,,,0.45,,2013-01-26 03:31:00,
2013-01-25 19:42:00,44.0,43.0,30.03,ESE,121,1.0,4.0,96,0.00,,,0.45,,2013-01-26 03:42:00,
2013-01-25 19:52:00,44.0,43.0,30.03,ESE,122,1.0,6.0,96,0.00,,,0.45,,2013-01-26 03:52:00,
2013-01-25 20:01:00,44.0,43.0,30.03,SE,125,3.0,7.0,96,0.00,,,0.45,,2013-01-26 04:01:00,
2013-01-25 20:12:00,44.0,43.0,30.03,SE,125,3.0,7.0,96,0.00,,,0.45,,2013-01-26 04:12:00,
2013-01-25 20:21:00,44.0,43.0,30.02,SE,134,3.0,8.0,96,0.00,,,0.45,,2013-01-26 04:21:00,
2013-01-25 20:32:00,44.0,43.0,30.02,SE,128,2.0,7.0,96,0.00,,,0.44,,2013-01-26 04:32:00,
2013-01-25 20:42:00,44.0,43.0,30.02,SE,128,2.0,7.0,96,0.00,,,0.44,,2013-01-26 04:42:00,
2013-01-25 20:52:00,44.0,43.0,30.01,East,98,3.0,9.0,96,0.00,,,0.44,,2013-01-26 04:52:00,
2013-01-25 21:02:00,44.0,43.0,30.01,East,98,3.0,9.0,96,0.00,,,0.44,,2013-01-26 05:02:00,
2013-01-25 21:12:00,44.0,43.0,30.01,East,98,3.0,9.0,96,0.00,,,0.44,,2013-01-26 05:12:00,
2013-01-25 21:22:00,44.0,43.0,30.02,South,174,4.0,10.0,95,0.01,,,0.45,,2013-01-26 05:22:00,
2013-01-25 21:33:00,44.0,43.0,30.02,East,99,3.0,8.0,95,0.01,,,0.45,,2013-01-26 05:33:00,
2013-01-25 21:42:00,44.0,43.0,30.02,East,99,3.0,8.0,95,0.01,,,0.45,,2013-01-26 05:42:00,
2013-01-25 21:52:00,44.0,43.0,30.02,ESE,115,4.0,9.0,95,0.01,,,0.45,,2013-01-26 05:52:00,
2013-01-25 22:02:00,45.0,44.0,30.02,ESE,111,3.0,10.0,95,0.01,,,0.45,,2013-01-26 06:02:00,
2013-01-25 22:11:00,45.0,44.0,30.02,ESE,111,3.0,10.0,95,0.01,,,0.45,,2013-01-26 06:11:00,
2013-01-25 22:21:00,45.0,43.0,30.01,East,85,5.0,10.0,94,0.00,,,0.45,,2013-01-26 06:21:00,
2013-01-25 22:31:00,45.0,43.0,30.01,ESE,113,4.0,13.0,94,0.00,,,0.45,,2013-01-26 06:31:00,
2013-01-25 22:41:00,45.0,43.0,30.01,ESE,113,4.0,13.0,94,0.00,,,0.45,,2013-01-26 06:41:00,
2013-01-25 22:52:00,45.0,43.0,30.01,ESE,122,3.0,11.0,94,0.00,,,0.45,,2013-01-26 06:52:00,
2013-01-25 23:01:00,46.0,44.0,30.01,ESE,103,3.0,10.0,93,0.00,,,0.45,,2013-01-26 07:01:00,
2013-01-25 23:11:00,46.0,44.0,30.01,ESE,103,3.0,10.0,93,0.00,,,0.45,,2013-01-26 07:11:00,
2013-01-25 23:21:00,46.0,44.0,30.01,ESE,103,3.0,10.0,93,0.00,,,0.45,,2013-01-26 07:21:00,
2013-01-25 23:33:00,47.0,45.0,30.02,SSE,155,3.0,10.0,92,0.00,,,0.44,,2013-01-26 07:33:00,
2013-01-25 23:41:00,47.0,45.0,30.02,SSE,155,3.0,10.0,92,0.00,,,0.44,,2013-01-26 07:41:00,
2013-01-25 23:52:00,47.0,45.0,30.02,SSE,155,3.0,10.0,92,0.00,,,0.44,,2013-01-26 07:52:00,